Time;durP1;ratioP1;P1;durP2;ratioP2;P2;SDS_P1;SDS_P2;PMS_P1;PMS_P2;Temp;Humidity;BMP_temperature;BMP_pressure;BME280_temperature;BME280_humidity;BME280_pressure;Samples;Min_cycle;Max_cycle;Signal;HPM_P1;HPM_P2
2022/12/13 00:01:27;;;;;;;72.70;30.00;;;;;;;;;;5072822;28;20094;-78
2022/12/13 00:03:54;;;;;;;82.35;31.67;;;;;;;;;;5058944;28;20401;-78
2022/12/13 00:06:20;;;;;;;76.88;29.30;;;;;;;;;;5073003;28;20033;-77
2022/12/13 00:08:47;;;;;;;73.82;29.08;;;;;;;;;;5072763;28;20102;-77
2022/12/13 00:11:13;;;;;;;67.53;27.70;;;;;;;;;;5037362;28;20044;-77
2022/12/13 00:13:40;;;;;;;73.47;28.60;;;;;;;;;;5063101;28;20128;-78
2022/12/13 00:16:07;;;;;;;74.38;29.45;;;;;;;;;;5055931;28;20052;-77
2022/12/13 00:18:33;;;;;;;70.10;27.70;;;;;;;;;;5058286;28;20046;-77
2022/12/13 00:21:03;;;;;;;71.93;28.52;;;;;;;;;;5072446;28;20045;-77
2022/12/13 00:23:29;;;;;;;70.18;27.25;;;;;;;;;;5058223;28;20047;-77
2022/12/13 00:25:55;;;;;;;75.50;27.67;;;;;;;;;;5062560;28;20052;-77
2022/12/13 00:28:21;;;;;;;73.57;27.95;;;;;;;;;;5052407;28;20041;-77
2022/12/13 00:30:47;;;;;;;73.85;28.77;;;;;;;;;;5060282;28;20089;-77
2022/12/13 00:33:13;;;;;;;67.65;26.98;;;;;;;;;;5071907;28;20047;-78
2022/12/13 00:35:40;;;;;;;66.32;26.17;;;;;;;;;;5072012;28;20032;-78
2022/12/13 00:38:06;;;;;;;68.78;26.95;;;;;;;;;;5059747;28;20056;-77
2022/12/13 00:40:32;;;;;;;71.00;26.88;;;;;;;;;;5065640;28;20041;-78
2022/12/13 00:42:58;;;;;;;64.93;26.42;;;;;;;;;;5052018;28;20124;-78
2022/12/13 00:45:24;;;;;;;64.28;26.38;;;;;;;;;;5068289;28;20086;-79
2022/12/13 00:47:51;;;;;;;66.43;26.38;;;;;;;;;;5071561;28;20042;-78
2022/12/13 00:50:17;;;;;;;69.45;27.85;;;;;;;;;;5058121;28;20049;-78
2022/12/13 00:52:43;;;;;;;65.65;26.80;;;;;;;;;;5048507;28;20047;-78
2022/12/13 00:55:09;;;;;;;72.63;29.38;;;;;;;;;;5052167;28;20048;-78
2022/12/13 00:57:35;;;;;;;67.10;28.15;;;;;;;;;;5049519;28;20049;-78
2022/12/13 01:00:01;;;;;;;67.30;28.55;;;;;;;;;;5052347;28;20135;-78
2022/12/13 01:02:27;;;;;;;65.07;26.33;;;;;;;;;;5065394;28;20044;-78
2022/12/13 01:04:53;;;;;;;62.85;27.50;;;;;;;;;;5043892;28;20066;-78
2022/12/13 01:07:19;;;;;;;64.22;25.83;;;;;;;;;;5057266;28;20069;-78
2022/12/13 01:09:45;;;;;;;62.03;26.10;;;;;;;;;;5071507;28;20049;-78
2022/12/13 01:12:12;;;;;;;77.13;27.42;;;;;;;;;;5071688;28;20040;-78
2022/12/13 01:14:38;;;;;;;63.95;27.63;;;;;;;;;;5057240;28;20061;-78
2022/12/13 01:17:05;;;;;;;61.60;25.50;;;;;;;;;;5064692;28;20493;-78
2022/12/13 01:19:31;;;;;;;63.38;26.15;;;;;;;;;;5068561;28;20109;-79
2022/12/13 01:21:58;;;;;;;59.22;25.70;;;;;;;;;;5051105;28;20047;-78
2022/12/13 01:24:25;;;;;;;59.85;24.98;;;;;;;;;;5035221;28;20041;-78
2022/12/13 01:26:51;;;;;;;62.10;26.58;;;;;;;;;;5034918;28;20041;-78
2022/12/13 01:29:18;;;;;;;62.70;25.35;;;;;;;;;;5062878;28;20485;-78
2022/12/13 01:31:44;;;;;;;62.50;26.92;;;;;;;;;;5069494;28;20079;-78
2022/12/13 01:34:11;;;;;;;64.60;26.40;;;;;;;;;;5059861;28;20072;-78
2022/12/13 01:36:37;;;;;;;62.22;26.80;;;;;;;;;;5071596;28;20117;-78
2022/12/13 01:39:03;;;;;;;68.35;27.02;;;;;;;;;;5043963;28;20048;-78
2022/12/13 01:41:31;;;;;;;70.20;27.70;;;;;;;;;;5071583;28;20048;-78
2022/12/13 01:44:01;;;;;;;69.20;25.95;;;;;;;;;;5057274;28;20093;-78
2022/12/13 01:46:28;;;;;;;63.97;24.55;;;;;;;;;;5071417;28;20068;-78
2022/12/13 01:48:57;;;;;;;63.55;25.08;;;;;;;;;;5053635;28;20072;-78
2022/12/13 01:51:27;;;;;;;62.25;25.50;;;;;;;;;;5060614;28;20040;-78
2022/12/13 01:53:56;;;;;;;57.03;23.85;;;;;;;;;;5056452;28;20048;-78
2022/12/13 01:56:29;;;;;;;51.88;22.25;;;;;;;;;;5062666;28;20445;-78
2022/12/13 01:58:55;;;;;;;55.28;23.92;;;;;;;;;;5066031;28;20044;-78
2022/12/13 02:01:22;;;;;;;55.25;23.15;;;;;;;;;;5072403;28;20041;-78
2022/12/13 02:03:48;;;;;;;54.78;24.85;;;;;;;;;;5104436;28;20045;-78
2022/12/13 02:06:22;;;;;;;63.25;23.80;;;;;;;;;;5034713;28;20393;-78
2022/12/13 02:08:49;;;;;;;53.33;23.13;;;;;;;;;;5050447;28;20048;-78
2022/12/13 02:11:15;;;;;;;57.70;23.65;;;;;;;;;;5053694;28;20041;-78
2022/12/13 02:13:41;;;;;;;56.05;23.33;;;;;;;;;;5062719;28;20091;-78
2022/12/13 02:16:36;;;;;;;59.92;24.20;;;;;;;;;;5054669;28;20064;-78
2022/12/13 02:19:21;;;;;;;56.60;23.52;;;;;;;;;;5063325;28;20106;-78
2022/12/13 02:21:53;;;;;;;55.67;24.33;;;;;;;;;;5060673;28;20040;-78
2022/12/13 02:24:38;;;;;;;61.20;25.00;;;;;;;;;;5063860;28;20108;-78
2022/12/13 02:27:31;;;;;;;65.55;26.42;;;;;;;;;;5054665;28;20124;-78
2022/12/13 02:30:16;;;;;;;61.10;26.05;;;;;;;;;;5055037;28;20049;-78
2022/12/13 02:33:04;;;;;;;61.53;25.02;;;;;;;;;;5064876;28;20049;-78
2022/12/13 02:35:39;;;;;;;59.22;24.17;;;;;;;;;;5072820;28;20115;-79
2022/12/13 02:38:18;;;;;;;56.43;18.47;;;;;;;;;;5062620;28;20977;-79
2022/12/13 02:40:46;;;;;;;63.15;25.70;;;;;;;;;;5061550;28;20043;-79
2022/12/13 02:43:12;;;;;;;70.18;26.52;;;;;;;;;;5062323;28;20041;-79
2022/12/13 02:45:41;;;;;;;57.45;25.17;;;;;;;;;;5068217;28;20041;-79
2022/12/13 02:48:09;;;;;;;58.60;23.27;;;;;;;;;;5053739;28;20045;-79
2022/12/13 02:50:35;;;;;;;64.60;25.75;;;;;;;;;;5054588;28;20037;-79
2022/12/13 02:53:02;;;;;;;60.72;24.48;;;;;;;;;;5054032;28;20048;-79
2022/12/13 02:55:28;;;;;;;61.78;24.50;;;;;;;;;;5054546;28;20049;-79
2022/12/13 02:57:54;;;;;;;57.10;23.73;;;;;;;;;;5037361;28;20068;-79
2022/12/13 03:00:22;;;;;;;52.80;23.98;;;;;;;;;;5054281;28;20040;-79
2022/12/13 03:02:51;;;;;;;59.80;23.10;;;;;;;;;;5054337;28;20040;-79
2022/12/13 03:08:25;;;;;;;;;;;;;;;;;;5054712;28;20041;-79
2022/12/13 03:10:55;;;;;;;50.72;21.92;;;;;;;;;;5054141;28;19916;-79
2022/12/13 03:13:37;;;;;;;47.83;21.63;;;;;;;;;;5054088;28;20060;-79
2022/12/13 03:16:06;;;;;;;56.35;22.73;;;;;;;;;;5053856;28;20075;-79
2022/12/13 03:18:33;;;;;;;54.15;23.17;;;;;;;;;;5054024;28;20163;-79
2022/12/13 03:21:00;;;;;;;54.45;23.00;;;;;;;;;;5055442;28;20043;-79
2022/12/13 03:23:27;;;;;;;55.60;24.23;;;;;;;;;;5054230;28;20489;-79
2022/12/13 03:25:55;;;;;;;50.90;22.83;;;;;;;;;;5041397;28;20048;-79
2022/12/13 03:28:21;;;;;;;55.13;22.27;;;;;;;;;;5071069;28;20379;-79
2022/12/13 03:30:47;;;;;;;47.47;21.40;;;;;;;;;;5053869;28;20035;-79
2022/12/13 03:33:13;;;;;;;52.35;22.95;;;;;;;;;;5035850;28;20498;-79
2022/12/13 03:35:40;;;;;;;54.95;23.80;;;;;;;;;;5037305;28;20041;-79
2022/12/13 03:38:06;;;;;;;55.05;22.00;;;;;;;;;;5054033;28;20371;-79
2022/12/13 03:40:33;;;;;;;53.42;22.70;;;;;;;;;;5053907;28;20564;-79
2022/12/13 03:42:59;;;;;;;54.38;22.77;;;;;;;;;;5053707;28;20548;-79
2022/12/13 03:45:25;;;;;;;47.05;20.77;;;;;;;;;;5054075;28;20401;-79
2022/12/13 03:47:51;;;;;;;51.17;21.20;;;;;;;;;;5039840;28;20490;-79
2022/12/13 03:50:17;;;;;;;47.83;21.40;;;;;;;;;;5053610;28;20041;-79
2022/12/13 03:52:43;;;;;;;49.78;21.33;;;;;;;;;;5053489;28;20083;-79
2022/12/13 03:55:10;;;;;;;46.72;21.67;;;;;;;;;;5053432;28;20049;-79
2022/12/13 03:57:36;;;;;;;56.33;22.50;;;;;;;;;;5053277;28;20071;-79
2022/12/13 04:00:02;;;;;;;52.28;21.60;;;;;;;;;;5053268;28;20079;-79
2022/12/13 04:02:28;;;;;;;49.33;22.13;;;;;;;;;;5053651;28;20051;-79
2022/12/13 04:04:54;;;;;;;55.80;22.27;;;;;;;;;;5053745;28;20130;-80
2022/12/13 04:07:20;;;;;;;51.05;22.10;;;;;;;;;;5053267;28;20095;-79
2022/12/13 04:09:46;;;;;;;51.15;20.77;;;;;;;;;;5019077;28;20104;-80
2022/12/13 04:14:57;;;;;;;51.83;22.73;;;;;;;;;;5064380;28;20071;-79
2022/12/13 04:17:23;;;;;;;51.95;22.23;;;;;;;;;;5053454;28;20080;-79
2022/12/13 04:19:49;;;;;;;53.45;22.08;;;;;;;;;;5052887;28;20048;-79
2022/12/13 04:22:15;;;;;;;48.15;21.52;;;;;;;;;;5016720;28;20088;-79
2022/12/13 04:24:41;;;;;;;51.95;21.65;;;;;;;;;;5058106;28;20056;-79
2022/12/13 04:27:07;;;;;;;45.97;20.52;;;;;;;;;;5077837;28;20075;-79
2022/12/13 04:29:33;;;;;;;48.30;21.58;;;;;;;;;;5054465;28;20048;-79
2022/12/13 04:31:59;;;;;;;55.20;21.08;;;;;;;;;;5053220;28;20123;-79
2022/12/13 04:34:25;;;;;;;49.22;21.27;;;;;;;;;;5053092;28;20079;-79
2022/12/13 04:36:51;;;;;;;54.65;21.55;;;;;;;;;;5051498;28;20102;-79
2022/12/13 04:39:17;;;;;;;56.08;22.23;;;;;;;;;;5052213;28;20037;-79
2022/12/13 04:41:43;;;;;;;54.47;23.35;;;;;;;;;;5035867;28;20474;-79
2022/12/13 04:44:10;;;;;;;52.65;23.70;;;;;;;;;;5052609;28;20037;-79
2022/12/13 04:46:36;;;;;;;57.92;24.25;;;;;;;;;;5053386;28;20040;-79
2022/12/13 04:49:02;;;;;;;57.45;23.88;;;;;;;;;;5052116;28;20037;-79
2022/12/13 04:51:28;;;;;;;57.80;23.67;;;;;;;;;;5052270;28;20048;-79
2022/12/13 04:53:54;;;;;;;61.75;24.50;;;;;;;;;;5035566;28;20063;-79
2022/12/13 04:56:20;;;;;;;55.50;24.67;;;;;;;;;;5035134;28;20072;-79
2022/12/13 04:58:46;;;;;;;56.78;23.15;;;;;;;;;;5035419;28;20052;-79
2022/12/13 05:01:12;;;;;;;57.88;22.85;;;;;;;;;;5054984;28;20040;-79
2022/12/13 05:03:38;;;;;;;57.53;24.23;;;;;;;;;;5052234;28;20041;-79
2022/12/13 05:06:08;;;;;;;59.05;24.75;;;;;;;;;;5040117;28;20125;-79
2022/12/13 05:08:35;;;;;;;63.47;24.27;;;;;;;;;;5051905;28;20119;-80
2022/12/13 05:11:01;;;;;;;57.55;24.27;;;;;;;;;;5052105;28;20520;-79
2022/12/13 05:13:27;;;;;;;57.58;24.15;;;;;;;;;;5051804;28;20485;-79
2022/12/13 05:15:57;;;;;;;61.80;24.95;;;;;;;;;;5034805;28;20049;-79
2022/12/13 05:18:23;;;;;;;54.33;23.40;;;;;;;;;;5034723;28;20056;-79
2022/12/13 05:20:50;;;;;;;62.30;24.00;;;;;;;;;;5051445;28;20044;-79
2022/12/13 05:23:16;;;;;;;57.42;23.25;;;;;;;;;;5052831;28;20077;-79
2022/12/13 05:25:42;;;;;;;53.92;23.15;;;;;;;;;;5051870;28;20075;-79
2022/12/13 05:28:09;;;;;;;53.17;23.15;;;;;;;;;;5051125;28;20040;-79
2022/12/13 05:30:37;;;;;;;54.30;22.67;;;;;;;;;;5051484;28;20040;-77
2022/12/13 05:33:03;;;;;;;56.47;24.50;;;;;;;;;;5051336;28;20034;-77
2022/12/13 05:35:29;;;;;;;55.10;23.85;;;;;;;;;;5051111;28;20036;-76
2022/12/13 05:37:55;;;;;;;57.75;23.95;;;;;;;;;;5051707;28;20489;-76
2022/12/13 05:40:22;;;;;;;54.85;24.10;;;;;;;;;;5052628;28;20068;-76
2022/12/13 05:42:48;;;;;;;60.40;24.08;;;;;;;;;;5051592;28;20045;-78
2022/12/13 05:45:15;;;;;;;61.40;24.92;;;;;;;;;;5052599;28;20045;-78
2022/12/13 05:47:41;;;;;;;61.47;24.35;;;;;;;;;;5051209;28;20041;-78
2022/12/13 05:50:07;;;;;;;59.30;24.13;;;;;;;;;;5084795;28;20047;-78
2022/12/13 05:52:33;;;;;;;56.15;23.23;;;;;;;;;;5050997;28;20065;-78
2022/12/13 05:54:59;;;;;;;56.83;23.85;;;;;;;;;;5051714;28;20057;-78
2022/12/13 05:57:26;;;;;;;57.78;24.20;;;;;;;;;;5035305;28;20120;-78
2022/12/13 05:59:52;;;;;;;58.92;23.13;;;;;;;;;;5051411;28;20143;-78
2022/12/13 06:02:18;;;;;;;61.17;23.70;;;;;;;;;;5024099;28;20062;-78
2022/12/13 06:04:44;;;;;;;63.22;25.08;;;;;;;;;;5065112;28;20135;-78
2022/12/13 06:07:10;;;;;;;60.05;22.85;;;;;;;;;;5051460;28;20041;-78
2022/12/13 06:09:36;;;;;;;61.83;24.05;;;;;;;;;;5051216;28;20044;-78
2022/12/13 06:12:02;;;;;;;64.53;24.52;;;;;;;;;;5051701;28;20076;-78
2022/12/13 06:14:29;;;;;;;52.97;23.48;;;;;;;;;;5052599;28;20053;-78
2022/12/13 06:16:55;;;;;;;63.70;25.83;;;;;;;;;;5051474;28;20123;-78
2022/12/13 06:19:21;;;;;;;58.08;25.08;;;;;;;;;;5034841;28;20044;-79
2022/12/13 06:21:48;;;;;;;58.38;26.02;;;;;;;;;;5037102;28;20041;-78
2022/12/13 06:24:18;;;;;;;59.33;25.02;;;;;;;;;;5052570;28;20120;-78
2022/12/13 06:26:44;;;;;;;58.70;23.40;;;;;;;;;;5053146;28;20097;-78
2022/12/13 06:29:10;;;;;;;62.60;25.50;;;;;;;;;;5050899;28;20079;-78
2022/12/13 06:31:36;;;;;;;56.88;24.52;;;;;;;;;;5034191;28;20045;-78
2022/12/13 06:34:02;;;;;;;60.95;24.25;;;;;;;;;;5039804;28;20176;-78
2022/12/13 06:36:29;;;;;;;63.40;24.92;;;;;;;;;;5050623;28;20047;-78
2022/12/13 06:38:55;;;;;;;60.97;25.05;;;;;;;;;;5050767;28;20041;-78
2022/12/13 06:41:21;;;;;;;63.47;25.42;;;;;;;;;;5050824;28;20037;-78
2022/12/13 06:43:48;;;;;;;65.63;25.13;;;;;;;;;;5067128;28;20175;-72
2022/12/13 06:46:15;;;;;;;62.40;24.58;;;;;;;;;;5050310;28;20033;-72
2022/12/13 06:48:41;;;;;;;63.40;24.45;;;;;;;;;;5051012;28;20068;-72
2022/12/13 06:51:08;;;;;;;59.10;24.33;;;;;;;;;;5050693;28;20512;-72
2022/12/13 06:53:35;;;;;;;57.67;25.17;;;;;;;;;;5050120;28;20513;-72
2022/12/13 06:56:05;;;;;;;58.85;24.98;;;;;;;;;;5033711;28;20052;-73
2022/12/13 06:58:32;;;;;;;63.78;26.05;;;;;;;;;;5033469;28;20073;-72
2022/12/13 07:01:06;;;;;;;60.13;25.63;;;;;;;;;;5054096;28;20512;-72
2022/12/13 07:03:32;;;;;;;73.15;27.45;;;;;;;;;;5037261;28;20140;-72
2022/12/13 07:05:59;;;;;;;66.55;27.90;;;;;;;;;;5053731;28;20037;-72
2022/12/13 07:08:25;;;;;;;64.13;24.88;;;;;;;;;;5037048;28;20048;-72
2022/12/13 07:10:54;;;;;;;60.78;25.45;;;;;;;;;;5037421;28;20045;-72
2022/12/13 07:13:21;;;;;;;78.65;30.25;;;;;;;;;;5052972;28;20048;-72
2022/12/13 07:15:48;;;;;;;118.28;45.28;;;;;;;;;;5036626;28;20061;-72
2022/12/13 07:18:14;;;;;;;92.07;36.05;;;;;;;;;;5053621;28;20494;-72
2022/12/13 07:20:40;;;;;;;75.70;29.48;;;;;;;;;;5053092;28;20119;-72
2022/12/13 07:23:07;;;;;;;62.00;24.83;;;;;;;;;;5053813;28;20575;-72
2022/12/13 07:25:33;;;;;;;66.90;27.55;;;;;;;;;;5036686;28;20102;-72
2022/12/13 07:28:00;;;;;;;115.88;42.95;;;;;;;;;;5036656;28;20041;-72
2022/12/13 07:30:26;;;;;;;86.10;32.88;;;;;;;;;;5052911;28;20099;-72
2022/12/13 07:32:52;;;;;;;64.32;27.38;;;;;;;;;;5036715;28;20094;-72
2022/12/13 07:35:18;;;;;;;60.97;26.52;;;;;;;;;;5034080;28;20515;-72
2022/12/13 07:40:40;;;;;;;77.32;29.00;;;;;;;;;;5052569;28;20470;-72
2022/12/13 07:43:06;;;;;;;73.50;29.45;;;;;;;;;;5036864;28;20050;-72
2022/12/13 07:46:07;;;;;;;67.43;28.08;;;;;;;;;;5053823;28;20033;-72
2022/12/13 07:48:37;;;;;;;60.90;24.73;;;;;;;;;;5022770;28;20049;-72
2022/12/13 07:51:05;;;;;;;62.30;24.60;;;;;;;;;;5053159;28;20540;-72
2022/12/13 07:53:32;;;;;;;64.47;25.40;;;;;;;;;;5036089;28;20470;-72
2022/12/13 07:56:01;;;;;;;70.47;26.25;;;;;;;;;;5052600;28;20088;-72
2022/12/13 07:58:28;;;;;;;63.28;25.60;;;;;;;;;;5052446;28;20041;-72
2022/12/13 08:00:58;;;;;;;67.70;24.70;;;;;;;;;;5052808;28;20494;-73
2022/12/13 08:03:24;;;;;;;61.20;23.40;;;;;;;;;;5052491;28;20087;-73
2022/12/13 08:05:57;;;;;;;62.95;24.98;;;;;;;;;;5052356;28;20048;-73
2022/12/13 08:08:23;;;;;;;66.85;26.75;;;;;;;;;;5052508;28;20045;-72
2022/12/13 08:10:49;;;;;;;63.50;25.45;;;;;;;;;;5052411;28;20033;-72
2022/12/13 08:13:16;;;;;;;64.53;26.83;;;;;;;;;;5052823;28;20044;-72
2022/12/13 08:15:43;;;;;;;64.03;26.08;;;;;;;;;;5051621;28;20083;-73
2022/12/13 08:18:09;;;;;;;63.45;25.88;;;;;;;;;;5054004;28;20041;-73
2022/12/13 08:20:36;;;;;;;70.32;27.50;;;;;;;;;;5051896;28;20080;-73
2022/12/13 08:23:02;;;;;;;61.88;26.67;;;;;;;;;;5052516;28;20055;-73
2022/12/13 08:25:28;;;;;;;71.15;27.65;;;;;;;;;;5052184;28;20123;-73
2022/12/13 08:27:54;;;;;;;65.00;28.85;;;;;;;;;;5053642;28;20075;-73
2022/12/13 08:30:21;;;;;;;67.68;29.60;;;;;;;;;;5053380;28;20048;-73
2022/12/13 08:32:49;;;;;;;284.20;39.97;;;;;;;;;;5051934;28;20498;-74
2022/12/13 08:35:15;;;;;;;146.25;30.27;;;;;;;;;;5046057;28;20049;-74
2022/12/13 08:37:41;;;;;;;454.98;43.33;;;;;;;;;;5051786;28;20076;-74
2022/12/13 08:40:07;;;;;;;527.88;42.92;;;;;;;;;;5052070;28;20049;-74
2022/12/13 08:42:33;;;;;;;962.10;54.80;;;;;;;;;;5051428;28;20029;-74
2022/12/13 08:44:59;;;;;;;467.20;39.13;;;;;;;;;;5052077;28;20090;-74
2022/12/13 08:47:26;;;;;;;1896.40;133.45;;;;;;;;;;5051801;28;20033;-74
2022/12/13 08:49:57;;;;;;;47.78;21.65;;;;;;;;;;5051478;28;20139;-74
2022/12/13 08:52:24;;;;;;;1551.68;121.38;;;;;;;;;;5051938;28;20566;-74
2022/12/13 08:54:50;;;;;;;325.10;32.67;;;;;;;;;;5084800;28;20116;-74
2022/12/13 08:57:16;;;;;;;372.05;31.67;;;;;;;;;;5035221;28;20128;-74
2022/12/13 08:59:42;;;;;;;223.90;27.33;;;;;;;;;;5051165;28;20072;-74
2022/12/13 09:02:13;;;;;;;38.83;20.52;;;;;;;;;;5035096;28;20489;-74
2022/12/13 09:04:39;;;;;;;44.25;20.33;;;;;;;;;;5084611;28;20041;-74
2022/12/13 09:07:05;;;;;;;401.83;33.28;;;;;;;;;;5015372;28;20041;-74
2022/12/13 09:09:31;;;;;;;538.33;37.80;;;;;;;;;;5046023;28;20044;-75
2022/12/13 09:11:57;;;;;;;1380.00;63.50;;;;;;;;;;5051063;28;20040;-75
2022/12/13 09:14:23;;;;;;;192.25;24.98;;;;;;;;;;5052439;28;20115;-74
2022/12/13 09:16:49;;;;;;;454.65;32.22;;;;;;;;;;5050718;28;20089;-75
2022/12/13 09:19:16;;;;;;;350.77;29.65;;;;;;;;;;5051604;28;20044;-75
2022/12/13 09:21:42;;;;;;;181.00;32.83;;;;;;;;;;5050540;28;20119;-75
2022/12/13 09:24:08;;;;;;;108.80;23.80;;;;;;;;;;5051298;28;20044;-75
2022/12/13 09:26:34;;;;;;;41.53;19.65;;;;;;;;;;5034734;28;20044;-75
2022/12/13 09:29:00;;;;;;;44.72;22.45;;;;;;;;;;5050790;28;20045;-73
2022/12/13 09:31:26;;;;;;;34.95;19.85;;;;;;;;;;5051104;28;20052;-72
2022/12/13 09:33:52;;;;;;;29.88;21.60;;;;;;;;;;5047638;28;20122;-72
2022/12/13 09:36:19;;;;;;;29.05;19.33;;;;;;;;;;5051060;28;20102;-74
2022/12/13 09:38:45;;;;;;;29.05;18.85;;;;;;;;;;5033792;28;20095;-74
2022/12/13 09:41:38;;;;;;;31.05;18.25;;;;;;;;;;5050926;28;20094;-74
2022/12/13 09:44:06;;;;;;;29.02;17.17;;;;;;;;;;5036400;28;20052;-73
2022/12/13 09:46:37;;;;;;;27.42;17.35;;;;;;;;;;5050991;28;20490;-73
2022/12/13 09:49:06;;;;;;;26.20;17.42;;;;;;;;;;5033949;28;20052;-74
2022/12/13 09:51:33;;;;;;;28.85;17.73;;;;;;;;;;5051013;28;20052;-74
2022/12/13 09:54:00;;;;;;;28.15;17.88;;;;;;;;;;5050527;28;20132;-73
2022/12/13 09:56:27;;;;;;;26.95;17.30;;;;;;;;;;5051185;28;20545;-73
2022/12/13 09:58:58;;;;;;;28.88;17.92;;;;;;;;;;5050311;28;20049;-72
2022/12/13 10:01:24;;;;;;;29.23;19.95;;;;;;;;;;5050673;28;20037;-72
2022/12/13 10:03:51;;;;;;;30.58;21.27;;;;;;;;;;5014007;28;20029;-72
2022/12/13 10:06:27;;;;;;;35.60;26.65;;;;;;;;;;5046243;28;20045;-73
2022/12/13 10:08:55;;;;;;;31.58;22.73;;;;;;;;;;5034016;28;20045;-73
2022/12/13 10:11:21;;;;;;;25.35;17.60;;;;;;;;;;5051823;28;20041;-73
2022/12/13 10:13:55;;;;;;;25.83;18.20;;;;;;;;;;5051766;28;20100;-73
2022/12/13 10:16:28;;;;;;;25.35;17.65;;;;;;;;;;5050328;28;20089;-73
2022/12/13 10:18:54;;;;;;;25.42;17.58;;;;;;;;;;5050136;28;20048;-73
2022/12/13 10:21:25;;;;;;;26.67;18.90;;;;;;;;;;5050942;28;20045;-74
2022/12/13 10:23:51;;;;;;;24.63;16.73;;;;;;;;;;5050649;28;20045;-74
2022/12/13 10:26:17;;;;;;;25.02;17.50;;;;;;;;;;5050549;28;20127;-74
2022/12/13 10:28:44;;;;;;;27.98;17.23;;;;;;;;;;5050385;28;20048;-74
2022/12/13 10:31:19;;;;;;;25.45;17.75;;;;;;;;;;5050758;28;20037;-74
2022/12/13 10:33:53;;;;;;;23.70;16.65;;;;;;;;;;5047654;28;20048;-74
2022/12/13 10:36:30;;;;;;;25.30;17.02;;;;;;;;;;5054723;28;20053;-74
2022/12/13 10:38:56;;;;;;;25.27;16.85;;;;;;;;;;5053721;28;20045;-74
2022/12/13 10:41:59;;;;;;;25.63;17.25;;;;;;;;;;5054082;28;20072;-75
2022/12/13 10:47:44;;;;;;;22.67;16.50;;;;;;;;;;5014215;28;20045;-74
2022/12/13 10:50:10;;;;;;;;;;;;;;;;;;5048389;28;20077;-74
2022/12/13 10:52:41;;;;;;;25.45;16.80;;;;;;;;;;5054668;28;19932;-74
2022/12/13 10:55:22;;;;;;;23.15;16.48;;;;;;;;;;5053933;28;20041;-74
2022/12/13 10:57:52;;;;;;;24.17;17.23;;;;;;;;;;5055134;28;20055;-74
2022/12/13 11:00:33;;;;;;;23.88;16.65;;;;;;;;;;5037257;28;20083;-74
2022/12/13 11:02:59;;;;;;;26.08;17.50;;;;;;;;;;5053291;28;20079;-73
2022/12/13 11:05:27;;;;;;;25.60;18.02;;;;;;;;;;5037222;28;20033;-73
2022/12/13 11:07:56;;;;;;;28.45;18.38;;;;;;;;;;5053189;28;20044;-74
2022/12/13 11:10:27;;;;;;;25.95;17.15;;;;;;;;;;5053770;28;20045;-74
2022/12/13 11:13:01;;;;;;;29.17;18.27;;;;;;;;;;5037082;28;20447;-74
2022/12/13 11:15:31;;;;;;;25.15;16.77;;;;;;;;;;5053623;28;20057;-74
2022/12/13 11:18:20;;;;;;;27.08;17.88;;;;;;;;;;5053431;28;20391;-74
2022/12/13 11:21:00;;;;;;;28.98;18.48;;;;;;;;;;5045608;28;20505;-74
2022/12/13 11:23:37;;;;;;;26.25;18.52;;;;;;;;;;5053447;28;20048;-74
2022/12/13 11:26:08;;;;;;;28.20;19.10;;;;;;;;;;5052964;28;20070;-74
2022/12/13 11:28:38;;;;;;;27.20;17.60;;;;;;;;;;5053293;28;20059;-74
2022/12/13 11:31:20;;;;;;;28.65;18.20;;;;;;;;;;5036527;28;20421;-74
2022/12/13 11:33:58;;;;;;;27.35;17.38;;;;;;;;;;5050809;28;20041;-74
2022/12/13 11:36:35;;;;;;;27.92;18.38;;;;;;;;;;5053109;28;20118;-74
2022/12/13 11:39:20;;;;;;;29.50;18.83;;;;;;;;;;5052698;28;20037;-73
2022/12/13 11:41:49;;;;;;;31.33;19.17;;;;;;;;;;5053336;28;20549;-73
2022/12/13 11:44:39;;;;;;;40.05;22.55;;;;;;;;;;5036225;28;20045;-73
2022/12/13 11:47:09;;;;;;;125.55;53.10;;;;;;;;;;5052455;28;20060;-73
2022/12/13 11:49:35;;;;;;;153.27;63.63;;;;;;;;;;5052974;28;20079;-73
2022/12/13 11:52:23;;;;;;;71.82;33.90;;;;;;;;;;5052694;28;20075;-73
2022/12/13 11:54:55;;;;;;;49.10;26.45;;;;;;;;;;5052762;28;20033;-73
2022/12/13 11:57:24;;;;;;;35.88;21.00;;;;;;;;;;5052756;28;20086;-73
2022/12/13 11:59:56;;;;;;;36.42;20.20;;;;;;;;;;5052762;28;20115;-73
2022/12/13 12:02:28;;;;;;;34.17;19.40;;;;;;;;;;5052950;28;20383;-73
2022/12/13 12:04:55;;;;;;;34.95;20.15;;;;;;;;;;5052586;28;20048;-73
2022/12/13 12:07:40;;;;;;;41.55;20.38;;;;;;;;;;5052714;28;20170;-73
2022/12/13 12:10:18;;;;;;;37.10;19.55;;;;;;;;;;5053716;28;20068;-73
2022/12/13 12:13:11;;;;;;;35.97;19.17;;;;;;;;;;5052841;28;20538;-74
2022/12/13 12:15:42;;;;;;;45.90;24.25;;;;;;;;;;5018311;28;20052;-73
2022/12/13 12:18:14;;;;;;;38.55;20.80;;;;;;;;;;5051935;28;20099;-73
2022/12/13 12:20:40;;;;;;;38.40;21.25;;;;;;;;;;5052286;28;20036;-73
2022/12/13 12:23:12;;;;;;;34.45;19.48;;;;;;;;;;5051755;28;20060;-74
2022/12/13 12:25:48;;;;;;;42.50;21.73;;;;;;;;;;5052259;28;20036;-74
2022/12/13 12:28:14;;;;;;;38.92;20.55;;;;;;;;;;5051935;28;20045;-74
2022/12/13 12:30:58;;;;;;;37.20;20.73;;;;;;;;;;5052209;28;20045;-74
2022/12/13 12:33:39;;;;;;;40.25;20.73;;;;;;;;;;5049073;28;20037;-74
2022/12/13 12:36:14;;;;;;;41.90;21.23;;;;;;;;;;5052851;28;20052;-72
2022/12/13 12:38:43;;;;;;;42.13;22.88;;;;;;;;;;5051719;28;20071;-72
2022/12/13 12:41:32;;;;;;;39.67;21.10;;;;;;;;;;5051818;28;20044;-72
2022/12/13 12:44:07;;;;;;;41.92;20.23;;;;;;;;;;5051894;28;20448;-73
2022/12/13 12:46:52;;;;;;;44.85;21.92;;;;;;;;;;5035354;28;20098;-73
2022/12/13 12:49:21;;;;;;;43.15;20.98;;;;;;;;;;5051686;28;20041;-73
2022/12/13 12:51:54;;;;;;;40.20;21.15;;;;;;;;;;5051552;28;20051;-73
2022/12/13 12:54:20;;;;;;;43.95;20.67;;;;;;;;;;5051173;28;20041;-73
2022/12/13 12:56:50;;;;;;;43.20;20.95;;;;;;;;;;5051030;28;20032;-73
2022/12/13 12:59:22;;;;;;;40.38;20.77;;;;;;;;;;5051108;28;20095;-73
2022/12/13 13:01:52;;;;;;;42.30;20.42;;;;;;;;;;5051602;28;20036;-73
2022/12/13 13:04:21;;;;;;;36.17;19.38;;;;;;;;;;5051200;28;20037;-73
2022/12/13 13:06:49;;;;;;;43.60;20.67;;;;;;;;;;5051335;28;20041;-73
2022/12/13 13:09:18;;;;;;;38.80;19.98;;;;;;;;;;5084643;28;20048;-73
2022/12/13 13:11:45;;;;;;;42.38;20.83;;;;;;;;;;5051570;28;20112;-73
2022/12/13 13:14:31;;;;;;;39.33;20.45;;;;;;;;;;5050748;28;20040;-73
2022/12/13 13:16:58;;;;;;;35.63;18.58;;;;;;;;;;5034876;28;20037;-73
2022/12/13 13:19:27;;;;;;;35.17;18.98;;;;;;;;;;5034345;28;20045;-73
2022/12/13 13:21:55;;;;;;;36.22;18.48;;;;;;;;;;5051340;28;20520;-72
2022/12/13 13:24:21;;;;;;;37.05;19.33;;;;;;;;;;5051079;28;20480;-73
2022/12/13 13:26:54;;;;;;;40.05;20.30;;;;;;;;;;5051238;28;20047;-74
2022/12/13 13:29:24;;;;;;;41.90;19.75;;;;;;;;;;5051212;28;20117;-72
2022/12/13 13:31:54;;;;;;;38.90;20.35;;;;;;;;;;5034831;28;20502;-71
2022/12/13 13:34:24;;;;;;;41.22;22.88;;;;;;;;;;5048195;28;20041;-72
2022/12/13 13:36:55;;;;;;;42.35;21.05;;;;;;;;;;5051400;28;20436;-74
2022/12/13 13:39:33;;;;;;;42.20;20.42;;;;;;;;;;5050556;28;20048;-74
2022/12/13 13:42:15;;;;;;;40.40;20.48;;;;;;;;;;5051233;28;20037;-74
2022/12/13 13:44:44;;;;;;;38.15;19.98;;;;;;;;;;5050977;28;20037;-75
2022/12/13 13:47:13;;;;;;;40.70;19.95;;;;;;;;;;5050609;28;20037;-74
2022/12/13 13:49:49;;;;;;;37.92;19.70;;;;;;;;;;5052165;28;20036;-74
2022/12/13 13:52:20;;;;;;;40.95;20.33;;;;;;;;;;5033728;28;20040;-74
2022/12/13 13:55:05;;;;;;;38.90;19.27;;;;;;;;;;5050530;28;20045;-74
2022/12/13 13:57:52;;;;;;;39.05;18.60;;;;;;;;;;5067504;28;20041;-74
2022/12/13 14:00:21;;;;;;;37.22;18.23;;;;;;;;;;5050161;28;20128;-74
2022/12/13 14:02:50;;;;;;;37.47;18.17;;;;;;;;;;5050608;28;20114;-72
2022/12/13 14:05:25;;;;;;;38.03;18.02;;;;;;;;;;5050238;28;20037;-72
2022/12/13 14:08:10;;;;;;;36.10;15.10;;;;;;;;;;5051422;28;20040;-73
2022/12/13 14:11:05;;;;;;;40.08;18.75;;;;;;;;;;5054598;28;20041;-73
2022/12/13 14:13:35;;;;;;;35.95;18.25;;;;;;;;;;5025155;28;20094;-72
2022/12/13 14:16:01;;;;;;;38.38;19.08;;;;;;;;;;5054651;28;20060;-73
2022/12/13 14:18:42;;;;;;;39.40;19.88;;;;;;;;;;5037725;28;20080;-73
2022/12/13 14:21:34;;;;;;;40.03;20.35;;;;;;;;;;5054659;28;20045;-73
2022/12/13 14:24:16;;;;;;;44.67;21.88;;;;;;;;;;5015312;28;20056;-73
2022/12/13 14:26:54;;;;;;;44.53;21.75;;;;;;;;;;5054409;28;20045;-73
2022/12/13 14:29:27;;;;;;;39.67;20.70;;;;;;;;;;5053980;28;20049;-73
2022/12/13 14:31:53;;;;;;;44.33;21.90;;;;;;;;;;5054876;28;20437;-73
2022/12/13 14:34:23;;;;;;;43.58;21.63;;;;;;;;;;5052675;28;20041;-73
2022/12/13 14:36:57;;;;;;;43.40;21.40;;;;;;;;;;5054226;28;20052;-73
2022/12/13 14:39:24;;;;;;;41.67;21.77;;;;;;;;;;5053780;28;20091;-73
2022/12/13 14:41:51;;;;;;;47.85;22.70;;;;;;;;;;5054262;28;20041;-73